createdAt,value
2023-04-09T00:00:27.926Z,7.16
2023-04-09T00:01:28.624Z,7.16
2023-04-09T00:02:28.011Z,7.13
2023-04-09T00:03:28.085Z,7.13
2023-04-09T00:04:27.895Z,7.13
2023-04-09T00:05:28.535Z,7.13
2023-04-09T00:06:28.438Z,7.13
2023-04-09T00:07:28.061Z,7.13
2023-04-09T00:08:27.757Z,7.13
2023-04-09T00:09:28.292Z,7.13
2023-04-09T00:10:28.000Z,7.15
2023-04-09T00:11:28.532Z,7.15
2023-04-09T00:12:28.273Z,7.13
2023-04-09T00:13:36.053Z,7.15
2023-04-09T00:14:28.940Z,7.13
2023-04-09T00:15:31.314Z,7.13
2023-04-09T00:16:27.937Z,7.13
2023-04-09T00:17:27.736Z,7.13
2023-04-09T00:18:28.433Z,7.16
2023-04-09T00:19:27.613Z,7.15
2023-04-09T00:20:27.926Z,7.15
2023-04-09T00:21:28.341Z,7.16
2023-04-09T00:22:28.083Z,7.15
2023-04-09T00:23:27.942Z,7.16
2023-04-09T00:24:28.314Z,7.17
2023-04-09T00:25:27.948Z,7.17
2023-04-09T00:26:28.398Z,7.16
2023-04-09T00:27:27.846Z,7.15
2023-04-09T00:28:27.938Z,7.16
2023-04-09T00:29:27.517Z,7.16
2023-04-09T00:30:27.722Z,7.16
2023-04-09T00:31:27.596Z,7.16
2023-04-09T00:32:35.249Z,7.16
2023-04-09T00:33:27.589Z,7.16
2023-04-09T00:34:27.528Z,7.16
2023-04-09T00:35:27.872Z,7.16
2023-04-09T00:36:27.513Z,7.17
2023-04-09T00:37:27.364Z,7.16
2023-04-09T00:38:28.310Z,7.17
2023-04-09T00:39:28.157Z,7.16
2023-04-09T00:40:27.509Z,7.15
2023-04-09T00:41:27.502Z,7.16
2023-04-09T00:42:27.447Z,7.15
2023-04-09T00:43:27.501Z,7.16
2023-04-09T00:44:27.958Z,7.16
2023-04-09T00:45:27.938Z,7.16
2023-04-09T00:46:27.342Z,7.16
2023-04-09T00:47:28.165Z,7.15
2023-04-09T00:48:27.532Z,7.15
2023-04-09T00:49:27.558Z,7.15
2023-04-09T00:50:27.210Z,7.16
2023-04-09T00:51:27.161Z,7.17
2023-04-09T00:52:27.925Z,7.16
2023-04-09T00:53:27.273Z,7.17
2023-04-09T00:54:27.444Z,7.17
2023-04-09T00:55:27.890Z,7.16
2023-04-09T00:56:27.970Z,7.17
2023-04-09T00:57:27.328Z,7.17
2023-04-09T00:58:27.043Z,7.17
2023-04-09T00:59:27.501Z,7.16
2023-04-09T01:00:27.176Z,7.17
2023-04-09T01:01:27.607Z,7.16
2023-04-09T01:02:27.489Z,7.16
2023-04-09T01:03:27.117Z,7.17
2023-04-09T01:04:27.484Z,7.17
2023-04-09T01:05:27.287Z,7.17
2023-04-09T01:06:27.518Z,7.16
2023-04-09T01:07:27.764Z,7.17
2023-04-09T01:08:27.351Z,7.16
2023-04-09T01:09:27.172Z,7.15
2023-04-09T01:10:27.403Z,7.16
2023-04-09T01:11:26.910Z,7.16
2023-04-09T01:12:27.446Z,7.15
2023-04-09T01:13:27.730Z,7.15
2023-04-09T01:14:27.455Z,7.16
2023-04-09T01:15:27.766Z,7.13
2023-04-09T01:16:27.167Z,7.15
2023-04-09T01:17:27.218Z,7.15
2023-04-09T01:18:27.271Z,7.15
2023-04-09T01:19:26.768Z,7.15
2023-04-09T01:20:26.911Z,7.17
2023-04-09T01:21:27.731Z,7.15
2023-04-09T01:22:26.929Z,7.15
2023-04-09T01:23:26.967Z,7.15
2023-04-09T01:24:26.893Z,7.16
2023-04-09T01:25:26.806Z,7.17
2023-04-09T01:26:27.087Z,7.17
2023-04-09T01:27:26.664Z,7.17
2023-04-09T01:28:27.542Z,7.19
2023-04-09T01:29:27.206Z,7.17
2023-04-09T01:30:26.952Z,7.19
2023-04-09T01:31:26.808Z,7.19
2023-04-09T01:32:26.918Z,7.19
2023-04-09T01:33:26.630Z,7.19
2023-04-09T01:34:26.671Z,7.17
2023-04-09T01:35:26.708Z,7.17
2023-04-09T01:36:27.224Z,7.17
2023-04-09T01:37:27.492Z,7.16
2023-04-09T01:38:26.704Z,7.16
2023-04-09T01:39:27.273Z,7.17
2023-04-09T01:40:27.464Z,7.16
2023-04-09T01:41:26.452Z,7.15
2023-04-09T01:42:26.944Z,7.15
2023-04-09T01:43:26.899Z,7.13
2023-04-09T01:44:26.934Z,7.13
2023-04-09T01:45:26.875Z,7.12
2023-04-09T01:46:26.916Z,7.12
2023-04-09T01:47:26.740Z,7.09
2023-04-09T01:48:26.889Z,7.09
2023-04-09T01:49:26.607Z,7.09
2023-04-09T01:50:26.844Z,7.08
2023-04-09T01:51:26.571Z,7.08
2023-04-09T01:52:26.792Z,7.08
2023-04-09T01:53:26.746Z,7.08
2023-04-09T01:54:27.053Z,7.08
2023-04-09T01:55:26.459Z,7.07
2023-04-09T01:56:26.333Z,7.07
2023-04-09T01:57:26.906Z,7.07
2023-04-09T01:58:26.703Z,7.05
2023-04-09T01:59:26.619Z,7.07
2023-04-09T02:00:26.757Z,7.04
2023-04-09T02:01:26.966Z,7.05
2023-04-09T02:02:26.404Z,7.04
2023-04-09T02:03:26.675Z,7.02
2023-04-09T02:04:26.132Z,7.02
2023-04-09T02:05:26.649Z,7.02
2023-04-09T02:06:26.496Z,7.01
2023-04-09T02:07:26.560Z,6.99
2023-04-09T02:08:26.641Z,6.99
2023-04-09T02:09:26.090Z,6.99
2023-04-09T02:10:26.196Z,6.98
2023-04-09T02:11:26.250Z,6.98
2023-04-09T02:12:26.206Z,6.98
2023-04-09T02:13:26.065Z,6.97
2023-04-09T02:14:26.602Z,6.97
2023-04-09T02:15:26.470Z,6.98
2023-04-09T02:16:26.001Z,6.97
2023-04-09T02:17:25.992Z,6.97
2023-04-09T02:18:26.103Z,6.98
2023-04-09T02:19:25.942Z,6.97
2023-04-09T02:20:26.095Z,6.98
2023-04-09T02:21:26.049Z,6.95
2023-04-09T02:22:25.929Z,6.97
2023-04-09T02:23:25.924Z,6.95
2023-04-09T02:24:25.864Z,6.97
2023-04-09T02:25:26.120Z,6.97
2023-04-09T02:26:25.822Z,6.95
2023-04-09T02:27:26.116Z,6.95
2023-04-09T02:28:25.766Z,6.95
2023-04-09T02:29:25.853Z,6.95
2023-04-09T02:30:26.526Z,6.95
2023-04-09T02:31:26.042Z,6.94
2023-04-09T02:32:26.569Z,6.94
2023-04-09T02:33:25.989Z,6.91
2023-04-09T02:34:26.065Z,6.94
2023-04-09T02:35:25.904Z,6.95
2023-04-09T02:36:26.655Z,6.95
2023-04-09T02:37:25.773Z,6.94
2023-04-09T02:38:25.899Z,6.95
2023-04-09T02:39:25.903Z,6.97
2023-04-09T02:40:25.998Z,6.97
2023-04-09T02:41:25.706Z,6.98
2023-04-09T02:42:25.898Z,6.97
2023-04-09T02:43:26.274Z,6.98
2023-04-09T02:44:25.929Z,6.97
2023-04-09T02:45:26.043Z,6.97
2023-04-09T02:46:25.912Z,6.95
2023-04-09T02:47:25.877Z,6.95
2023-04-09T02:48:25.889Z,6.95
2023-04-09T02:49:25.887Z,6.95
2023-04-09T02:50:27.366Z,6.95
2023-04-09T02:51:26.048Z,6.95
2023-04-09T02:52:25.581Z,6.97
2023-04-09T02:53:25.752Z,6.95
2023-04-09T02:54:25.720Z,6.95
2023-04-09T02:55:26.400Z,6.95
2023-04-09T02:56:25.566Z,6.95
2023-04-09T02:57:25.478Z,6.95
2023-04-09T02:58:25.519Z,6.95
2023-04-09T02:59:25.884Z,6.94
2023-04-09T03:00:25.873Z,6.95
2023-04-09T03:01:25.983Z,6.97
2023-04-09T03:02:25.506Z,6.94
2023-04-09T03:03:25.498Z,6.94
2023-04-09T03:04:25.846Z,6.94
2023-04-09T03:05:25.253Z,6.94
2023-04-09T03:06:25.642Z,6.90
2023-04-09T03:07:25.232Z,6.94
2023-04-09T03:08:25.491Z,6.94
2023-04-09T03:09:25.306Z,6.94
2023-04-09T03:10:25.208Z,6.94
2023-04-09T03:11:25.453Z,6.94
2023-04-09T03:12:26.017Z,6.94
2023-04-09T03:13:25.749Z,6.91
2023-04-09T03:14:26.011Z,6.94
2023-04-09T03:15:25.233Z,6.91
2023-04-09T03:16:25.121Z,6.94
2023-04-09T03:17:25.392Z,6.94
2023-04-09T03:18:25.371Z,6.91
2023-04-09T03:19:25.202Z,6.94
2023-04-09T03:20:25.195Z,6.91
2023-04-09T03:21:25.267Z,6.91
2023-04-09T03:22:25.228Z,6.91
2023-04-09T03:23:25.982Z,6.90
2023-04-09T03:24:25.213Z,6.90
2023-04-09T03:25:24.999Z,6.91
2023-04-09T03:26:25.464Z,6.91
2023-04-09T03:27:25.248Z,6.91
2023-04-09T03:28:24.974Z,6.94
2023-04-09T03:29:24.925Z,6.91
2023-04-09T03:30:25.203Z,6.91
2023-04-09T03:31:25.157Z,6.91
2023-04-09T03:32:25.239Z,6.89
2023-04-09T03:33:24.904Z,6.90
2023-04-09T03:34:24.881Z,6.90
2023-04-09T03:35:25.337Z,6.90
2023-04-09T03:36:25.202Z,6.91
2023-04-09T03:37:24.873Z,6.90
2023-04-09T03:38:24.952Z,6.89
2023-04-09T03:39:24.881Z,6.90
2023-04-09T03:40:24.967Z,6.89
2023-04-09T03:41:24.788Z,6.90
2023-04-09T03:42:25.738Z,6.89
2023-04-09T03:43:24.789Z,6.89
2023-04-09T03:44:25.499Z,6.89
2023-04-09T03:45:24.707Z,6.89
2023-04-09T03:46:25.179Z,6.89
2023-04-09T03:47:24.746Z,6.87
2023-04-09T03:48:25.253Z,6.89
2023-04-09T03:49:24.692Z,6.87
2023-04-09T03:50:24.968Z,6.87
2023-04-09T03:51:24.624Z,6.87
2023-04-09T03:52:25.268Z,6.89
2023-04-09T03:53:24.645Z,6.87
2023-04-09T03:54:25.209Z,6.86
2023-04-09T03:55:24.592Z,6.86
2023-04-09T03:56:24.589Z,6.87
2023-04-09T03:57:24.865Z,6.86
2023-04-09T03:58:25.020Z,6.87
2023-04-09T03:59:24.568Z,6.86
2023-04-09T04:00:24.598Z,6.87
2023-04-09T04:01:24.836Z,6.86
2023-04-09T04:02:24.598Z,6.84
2023-04-09T04:03:24.625Z,6.84
2023-04-09T04:04:24.574Z,6.84
2023-04-09T04:05:24.497Z,6.86
2023-04-09T04:06:24.439Z,6.86
2023-04-09T04:07:24.455Z,6.86
2023-04-09T04:08:24.598Z,6.87
2023-04-09T04:09:24.801Z,6.87
2023-04-09T04:10:24.340Z,6.86
2023-04-09T04:11:24.393Z,6.87
2023-04-09T04:12:24.436Z,6.87
2023-04-09T04:13:24.680Z,6.89
2023-04-09T04:14:24.316Z,6.87
2023-04-09T04:15:24.495Z,6.87
2023-04-09T04:16:24.285Z,6.87
2023-04-09T04:17:24.398Z,6.89
2023-04-09T04:18:24.227Z,6.89
2023-04-09T04:19:24.230Z,6.90
2023-04-09T04:20:24.413Z,6.89
2023-04-09T04:21:24.219Z,6.90
2023-04-09T04:22:26.377Z,6.89
2023-04-09T04:23:24.170Z,6.89
2023-04-09T04:24:24.252Z,6.90
2023-04-09T04:25:25.139Z,6.91
2023-04-09T04:26:24.126Z,6.90
2023-04-09T04:27:24.101Z,6.89
2023-04-09T04:28:24.229Z,6.90
2023-04-09T04:29:24.135Z,6.89
2023-04-09T04:30:24.116Z,6.89
2023-04-09T04:31:24.163Z,6.91
2023-04-09T04:32:24.151Z,6.91
2023-04-09T04:33:24.075Z,6.90
2023-04-09T04:34:24.103Z,6.91
2023-04-09T04:35:25.016Z,6.91
2023-04-09T04:36:24.034Z,6.91
2023-04-09T04:37:23.984Z,6.91
2023-04-09T04:38:24.913Z,6.94
2023-04-09T04:39:24.257Z,6.94
2023-04-09T04:40:24.719Z,6.94
2023-04-09T04:41:24.234Z,6.94
2023-04-09T04:42:24.821Z,6.94
2023-04-09T04:43:24.690Z,6.95
2023-04-09T04:44:24.394Z,6.95
2023-04-09T04:45:24.794Z,6.97
2023-04-09T04:46:23.847Z,6.97
2023-04-09T04:47:23.828Z,6.97
2023-04-09T04:48:24.742Z,6.98
2023-04-09T04:49:23.911Z,6.98
2023-04-09T04:50:24.441Z,6.99
2023-04-09T04:51:23.789Z,6.98
2023-04-09T04:52:23.972Z,6.99
2023-04-09T04:53:24.218Z,7.01
2023-04-09T04:54:23.806Z,7.01
2023-04-09T04:55:23.722Z,7.02
2023-04-09T04:56:23.840Z,7.01
2023-04-09T04:57:23.824Z,7.01
2023-04-09T04:58:23.670Z,7.01
2023-04-09T04:59:23.743Z,7.02
2023-04-09T05:00:24.441Z,7.04
2023-04-09T05:01:23.799Z,7.05
2023-04-09T05:02:24.053Z,7.05
2023-04-09T05:03:26.141Z,7.07
2023-04-09T05:04:23.623Z,7.07
2023-04-09T05:05:23.696Z,7.08
2023-04-09T05:06:23.655Z,7.08
2023-04-09T05:07:23.602Z,7.08
2023-04-09T05:08:23.653Z,7.09
2023-04-09T05:09:23.563Z,7.09
2023-04-09T05:10:24.387Z,7.12
2023-04-09T05:11:23.963Z,7.12
2023-04-09T05:12:24.049Z,7.13
2023-04-09T05:13:23.571Z,7.16
2023-04-09T05:14:23.493Z,7.15
2023-04-09T05:15:23.469Z,7.15
2023-04-09T05:16:23.548Z,7.15
2023-04-09T05:17:23.657Z,7.17
2023-04-09T05:18:24.143Z,7.19
2023-04-09T05:19:23.461Z,7.20
2023-04-09T05:20:26.549Z,7.17
2023-04-09T05:21:23.987Z,7.19
2023-04-09T05:22:23.370Z,7.22
2023-04-09T05:23:23.413Z,7.20
2023-04-09T05:24:24.191Z,7.22
2023-04-09T05:25:23.574Z,7.22
2023-04-09T05:26:23.561Z,7.23
2023-04-09T05:27:23.324Z,7.22
2023-04-09T05:28:23.247Z,7.24
2023-04-09T05:29:24.151Z,7.23
2023-04-09T05:30:23.222Z,7.23
2023-04-09T05:31:23.593Z,7.23
2023-04-09T05:32:24.083Z,7.22
2023-04-09T05:33:23.526Z,7.24
2023-04-09T05:34:23.283Z,7.23
2023-04-09T05:35:23.355Z,7.26
2023-04-09T05:36:23.338Z,7.26
2023-04-09T05:37:23.560Z,7.24
2023-04-09T05:38:23.564Z,7.23
2023-04-09T05:39:23.096Z,7.22
2023-04-09T05:40:23.504Z,7.20
2023-04-09T05:41:23.097Z,7.22
2023-04-09T05:42:23.122Z,7.23
2023-04-09T05:43:23.088Z,7.24
2023-04-09T05:44:23.229Z,7.26
2023-04-09T05:45:23.538Z,7.29
2023-04-09T05:46:23.089Z,7.32
2023-04-09T05:47:23.251Z,7.32
2023-04-09T05:48:23.003Z,7.34
2023-04-09T05:49:23.278Z,7.35
2023-04-09T05:50:22.967Z,7.38
2023-04-09T05:51:23.178Z,7.41
2023-04-09T05:52:23.103Z,7.42
2023-04-09T05:53:22.949Z,7.42
2023-04-09T05:54:23.034Z,7.41
2023-04-09T05:55:23.120Z,7.41
2023-04-09T05:56:22.955Z,7.42
2023-04-09T05:57:22.863Z,7.45
2023-04-09T05:58:22.890Z,7.45
2023-04-09T05:59:22.869Z,7.45
2023-04-09T06:00:22.810Z,7.44
2023-04-09T06:01:23.660Z,7.49
2023-04-09T06:02:23.319Z,7.50
2023-04-09T06:03:22.932Z,7.50
2023-04-09T06:04:23.732Z,7.50
2023-04-09T06:05:23.081Z,7.50
2023-04-09T06:06:22.858Z,7.52
2023-04-09T06:07:22.774Z,7.52
2023-04-09T06:08:22.814Z,7.55
2023-04-09T06:09:23.608Z,7.56
2023-04-09T06:10:22.783Z,7.59
2023-04-09T06:11:22.850Z,7.60
2023-04-09T06:12:22.653Z,7.62
2023-04-09T06:13:22.656Z,7.69
2023-04-09T06:14:22.819Z,7.71
2023-04-09T06:15:22.681Z,7.75
2023-04-09T06:16:22.821Z,7.75
2023-04-09T06:17:22.638Z,7.75
2023-04-09T06:18:22.825Z,7.78
2023-04-09T06:19:23.088Z,7.78
2023-04-09T06:20:22.573Z,7.78
2023-04-09T06:21:22.801Z,7.79
2023-04-09T06:22:22.560Z,7.79
2023-04-09T06:23:22.902Z,7.82
2023-04-09T06:24:22.747Z,7.84
2023-04-09T06:25:22.813Z,7.82
2023-04-09T06:26:22.460Z,7.84
2023-04-09T06:27:22.923Z,7.85
2023-04-09T06:28:22.506Z,7.85
2023-04-09T06:29:24.283Z,7.89
2023-04-09T06:30:22.402Z,7.93
2023-04-09T06:31:22.827Z,7.96
2023-04-09T06:32:22.444Z,8.00
2023-04-09T06:33:22.602Z,8.07
2023-04-09T06:34:22.746Z,8.11
2023-04-09T06:35:22.765Z,8.15
2023-04-09T06:36:22.932Z,8.17
2023-04-09T06:37:22.274Z,8.17
2023-04-09T06:38:22.828Z,8.20
2023-04-09T06:39:22.372Z,8.25
2023-04-09T06:40:23.217Z,8.29
2023-04-09T06:41:22.256Z,8.30
2023-04-09T06:42:22.245Z,8.33
2023-04-09T06:43:22.226Z,8.39
2023-04-09T06:44:22.624Z,8.42
2023-04-09T06:45:22.594Z,8.45
2023-04-09T06:46:22.397Z,8.45
2023-04-09T06:47:22.211Z,8.50
2023-04-09T06:48:22.960Z,8.53
2023-04-09T06:49:22.154Z,8.58
2023-04-09T06:50:22.589Z,8.60
2023-04-09T06:51:22.515Z,8.62
2023-04-09T06:52:22.657Z,8.63
2023-04-09T06:53:22.154Z,8.65
2023-04-09T06:54:22.221Z,8.72
2023-04-09T06:55:22.083Z,8.76
2023-04-09T06:56:22.630Z,8.83
2023-04-09T06:57:22.726Z,8.91
2023-04-09T06:58:22.014Z,9.02
2023-04-09T06:59:22.065Z,9.13
2023-04-09T07:00:22.009Z,9.25
2023-04-09T07:01:22.197Z,9.38
2023-04-09T07:02:23.016Z,9.53
2023-04-09T07:03:22.060Z,9.56
2023-04-09T07:04:22.220Z,9.63
2023-04-09T07:05:22.579Z,9.71
2023-04-09T07:06:21.889Z,9.83
2023-04-09T07:07:23.782Z,9.97
2023-04-09T07:08:22.029Z,10.10
2023-04-09T07:09:22.198Z,10.15
2023-04-09T07:10:21.953Z,10.24
2023-04-09T07:11:21.861Z,10.25
2023-04-09T07:12:21.868Z,10.26
2023-04-09T07:13:22.036Z,10.32
2023-04-09T07:14:21.795Z,10.28
2023-04-09T07:15:21.791Z,10.32
2023-04-09T07:16:21.801Z,10.30
2023-04-09T07:17:21.777Z,10.19
2023-04-09T07:18:21.917Z,10.24
2023-04-09T07:19:21.778Z,10.25
2023-04-09T07:20:22.729Z,10.32
2023-04-09T07:21:21.683Z,10.36
2023-04-09T07:22:21.686Z,10.37
2023-04-09T07:23:22.010Z,10.30
2023-04-09T07:24:21.692Z,10.30
2023-04-09T07:25:21.993Z,10.30
2023-04-09T07:26:21.701Z,10.34
2023-04-09T07:27:21.631Z,10.34
2023-04-09T07:28:21.668Z,10.37
2023-04-09T07:29:21.713Z,10.39
2023-04-09T07:30:21.639Z,10.43
2023-04-09T07:31:22.060Z,10.40
2023-04-09T07:32:21.678Z,10.40
2023-04-09T07:33:22.229Z,10.37
2023-04-09T07:34:21.578Z,10.40
2023-04-09T07:35:21.812Z,10.40
2023-04-09T07:36:22.407Z,10.42
2023-04-09T07:37:21.475Z,10.43
2023-04-09T07:38:21.468Z,10.39
2023-04-09T07:39:21.558Z,10.33
2023-04-09T07:40:21.581Z,10.25
2023-04-09T07:41:21.507Z,10.15
2023-04-09T07:42:21.455Z,10.12
2023-04-09T07:43:22.552Z,10.04
2023-04-09T07:44:21.359Z,10.01
2023-04-09T07:45:21.483Z,9.94
2023-04-09T07:46:21.540Z,9.89
2023-04-09T07:47:21.727Z,9.85
2023-04-09T07:48:21.339Z,9.79
2023-04-09T07:49:21.711Z,9.76
2023-04-09T07:50:21.645Z,9.76
2023-04-09T07:51:21.340Z,9.70
2023-04-09T07:52:21.676Z,9.67
2023-04-09T07:53:21.290Z,9.67
2023-04-09T07:54:21.333Z,9.66
2023-04-09T07:55:21.894Z,9.67
2023-04-09T07:56:21.464Z,9.67
2023-04-09T07:57:21.336Z,9.66
2023-04-09T07:58:21.362Z,9.64
2023-04-09T07:59:21.404Z,9.63
2023-04-09T08:00:21.205Z,9.63
2023-04-09T08:01:21.482Z,9.61
2023-04-09T08:02:21.349Z,9.60
2023-04-09T08:03:21.314Z,9.61
2023-04-09T08:04:21.300Z,9.60
2023-04-09T08:05:21.278Z,9.60
2023-04-09T08:06:21.561Z,9.61
2023-04-09T08:07:21.076Z,9.66
2023-04-09T08:08:21.557Z,9.75
2023-04-09T08:09:21.077Z,9.82
2023-04-09T08:10:21.758Z,9.85
2023-04-09T08:11:21.515Z,9.91
2023-04-09T08:12:21.782Z,9.89
2023-04-09T08:13:21.093Z,9.86
2023-04-09T08:14:21.074Z,9.79
2023-04-09T08:15:21.781Z,9.82
2023-04-09T08:16:21.272Z,9.79
2023-04-09T08:17:21.629Z,9.79
2023-04-09T08:18:21.243Z,9.79
2023-04-09T08:19:21.084Z,9.79
2023-04-09T08:20:20.866Z,9.78
2023-04-09T08:21:20.908Z,9.75
2023-04-09T08:22:21.300Z,9.73
2023-04-09T08:23:20.846Z,9.71
2023-04-09T08:24:21.656Z,9.76
2023-04-09T08:25:20.869Z,9.82
2023-04-09T08:26:20.819Z,9.91
2023-04-09T08:27:21.765Z,10.01
2023-04-09T08:28:21.057Z,10.12
2023-04-09T08:29:21.784Z,10.22
2023-04-09T08:30:21.595Z,10.26
2023-04-09T08:31:20.878Z,10.33
2023-04-09T08:32:21.671Z,10.40
2023-04-09T08:33:21.604Z,10.47
2023-04-09T08:34:20.708Z,10.55
2023-04-09T08:35:20.683Z,10.60
2023-04-09T08:36:21.609Z,10.68
2023-04-09T08:37:21.179Z,10.80
2023-04-09T08:38:21.674Z,10.89
2023-04-09T08:39:21.536Z,10.98
2023-04-09T08:40:20.595Z,11.03
2023-04-09T08:41:20.581Z,11.10
2023-04-09T08:42:20.559Z,11.14
2023-04-09T08:43:20.660Z,11.09
2023-04-09T08:44:20.677Z,11.14
2023-04-09T08:45:20.515Z,11.19
2023-04-09T08:46:20.533Z,11.24
2023-04-09T08:47:21.527Z,11.25
2023-04-09T08:48:21.519Z,11.27
2023-04-09T08:49:20.536Z,11.38
2023-04-09T08:50:20.752Z,11.49
2023-04-09T08:51:20.417Z,11.54
2023-04-09T08:52:20.443Z,11.53
2023-04-09T08:53:20.451Z,11.59
2023-04-09T08:54:20.377Z,11.65
2023-04-09T08:55:20.407Z,11.70
2023-04-09T08:56:20.512Z,11.72
2023-04-09T08:57:20.454Z,11.70
2023-04-09T08:58:20.347Z,11.74
2023-04-09T08:59:20.352Z,11.77
2023-04-09T09:00:21.402Z,11.71
2023-04-09T09:01:20.570Z,11.62
2023-04-09T09:02:20.600Z,11.52
2023-04-09T09:03:20.359Z,11.46
2023-04-09T09:04:20.465Z,11.46
2023-04-09T09:05:20.517Z,11.49
2023-04-09T09:06:20.518Z,11.44
2023-04-09T09:07:21.132Z,11.31
2023-04-09T09:08:20.194Z,11.21
2023-04-09T09:09:20.248Z,11.16
2023-04-09T09:10:20.440Z,11.14
2023-04-09T09:11:20.204Z,11.11
2023-04-09T09:12:20.184Z,11.17
2023-04-09T09:13:20.203Z,11.27
2023-04-09T09:14:20.125Z,11.35
2023-04-09T09:15:20.196Z,11.39
2023-04-09T09:16:21.057Z,11.38
2023-04-09T09:17:20.108Z,11.46
2023-04-09T09:18:20.052Z,11.44
2023-04-09T09:19:20.982Z,11.52
2023-04-09T09:20:20.127Z,11.68
2023-04-09T09:21:20.189Z,11.83
2023-04-09T09:22:20.952Z,11.90
2023-04-09T09:23:20.847Z,11.99
2023-04-09T09:24:20.759Z,12.04
2023-04-09T09:25:19.980Z,12.12
2023-04-09T09:26:20.872Z,12.19
2023-04-09T09:27:20.216Z,12.27
2023-04-09T09:28:19.914Z,12.34
2023-04-09T09:29:19.979Z,12.46
2023-04-09T09:30:19.947Z,12.57
2023-04-09T09:31:20.913Z,12.63
2023-04-09T09:32:19.908Z,12.67
2023-04-09T09:33:20.018Z,12.75
2023-04-09T09:34:20.823Z,12.77
2023-04-09T09:35:19.884Z,12.79
2023-04-09T09:36:19.896Z,12.77
2023-04-09T09:37:19.866Z,12.75
2023-04-09T09:38:19.781Z,12.71
2023-04-09T09:39:19.733Z,12.67
2023-04-09T09:40:19.875Z,12.56
2023-04-09T09:41:19.945Z,12.52
2023-04-09T09:42:19.785Z,12.42
2023-04-09T09:43:19.742Z,12.46
2023-04-09T09:44:20.639Z,12.49
2023-04-09T09:45:19.665Z,12.44
2023-04-09T09:46:19.944Z,12.39
2023-04-09T09:47:20.665Z,12.37
2023-04-09T09:48:19.670Z,12.23
2023-04-09T09:49:19.899Z,12.19
2023-04-09T09:50:19.596Z,12.23
2023-04-09T09:51:19.915Z,12.31
2023-04-09T09:52:19.652Z,12.38
2023-04-09T09:53:19.869Z,12.38
2023-04-09T09:54:19.644Z,12.41
2023-04-09T09:55:19.891Z,12.44
2023-04-09T09:56:19.530Z,12.57
2023-04-09T09:57:19.553Z,12.71
2023-04-09T09:58:19.922Z,12.85
2023-04-09T09:59:19.875Z,12.93
2023-04-09T10:00:20.769Z,12.89
2023-04-09T10:01:19.652Z,12.95
2023-04-09T10:02:19.579Z,13.03
2023-04-09T10:03:19.968Z,13.15
2023-04-09T10:04:19.471Z,13.27
2023-04-09T10:05:19.915Z,13.25
2023-04-09T10:06:19.949Z,13.25
2023-04-09T10:07:19.422Z,13.32
2023-04-09T10:08:19.444Z,13.29
2023-04-09T10:09:19.324Z,13.44
2023-04-09T10:10:19.915Z,13.46
2023-04-09T10:11:19.289Z,13.41
2023-04-09T10:12:19.403Z,13.51
2023-04-09T10:13:19.284Z,13.54
2023-04-09T10:14:19.272Z,13.56
2023-04-09T10:15:19.247Z,13.54
2023-04-09T10:16:19.317Z,13.47
2023-04-09T10:17:19.230Z,13.51
2023-04-09T10:18:20.180Z,13.55
2023-04-09T10:19:19.237Z,13.46
2023-04-09T10:20:19.201Z,13.46
2023-04-09T10:21:19.210Z,13.56
2023-04-09T10:22:19.146Z,13.65
2023-04-09T10:23:19.146Z,13.79
2023-04-09T10:24:19.146Z,13.83
2023-04-09T10:25:19.125Z,13.87
2023-04-09T10:26:19.090Z,13.83
2023-04-09T10:27:19.160Z,13.87
2023-04-09T10:28:19.060Z,13.79
2023-04-09T10:29:19.027Z,13.77
2023-04-09T10:30:19.792Z,13.88
2023-04-09T10:31:19.093Z,13.98
2023-04-09T10:32:19.094Z,13.99
2023-04-09T10:33:19.040Z,14.09
2023-04-09T10:34:19.124Z,14.10
2023-04-09T10:35:19.233Z,14.13
2023-04-09T10:36:18.967Z,14.14
2023-04-09T10:37:18.958Z,14.24
2023-04-09T10:38:19.206Z,14.27
2023-04-09T10:39:18.901Z,14.25
2023-04-09T10:40:19.238Z,14.31
2023-04-09T10:41:18.948Z,14.31
2023-04-09T10:42:18.873Z,14.27
2023-04-09T10:43:19.895Z,14.32
2023-04-09T10:44:19.740Z,14.43
2023-04-09T10:45:20.636Z,14.52
2023-04-09T10:46:19.885Z,14.61
2023-04-09T10:47:18.819Z,14.65
2023-04-09T10:48:18.791Z,14.69
2023-04-09T10:49:18.817Z,14.74
2023-04-09T10:50:18.776Z,14.78
2023-04-09T10:51:19.574Z,14.80
2023-04-09T10:52:18.948Z,14.78
2023-04-09T10:53:18.699Z,14.78
2023-04-09T10:54:18.692Z,14.83
2023-04-09T10:55:18.676Z,14.84
2023-04-09T10:56:18.965Z,14.84
2023-04-09T10:57:18.671Z,14.88
2023-04-09T10:58:18.786Z,15.02
2023-04-09T10:59:18.661Z,15.24
2023-04-09T11:00:18.780Z,15.28
2023-04-09T11:01:18.659Z,15.20
2023-04-09T11:02:19.677Z,15.30
2023-04-09T11:03:18.725Z,15.64
2023-04-09T11:04:19.392Z,16.33
2023-04-09T11:05:19.523Z,16.60
2023-04-09T11:06:18.556Z,16.53
2023-04-09T11:07:19.379Z,16.44
2023-04-09T11:08:19.356Z,16.45
2023-04-09T11:09:18.478Z,16.34
2023-04-09T11:10:18.542Z,16.26
2023-04-09T11:11:19.262Z,16.37
2023-04-09T11:12:18.539Z,17.06
2023-04-09T11:13:19.256Z,17.97
2023-04-09T11:14:18.431Z,18.97
2023-04-09T11:15:18.450Z,19.70
2023-04-09T11:16:24.342Z,20.31
2023-04-09T11:17:19.367Z,20.93
2023-04-09T11:18:19.282Z,21.38
2023-04-09T11:19:18.337Z,21.64
2023-04-09T11:20:19.351Z,21.63
2023-04-09T11:21:19.256Z,21.57
2023-04-09T11:22:19.170Z,21.04
2023-04-09T11:23:19.125Z,20.96
2023-04-09T11:24:18.319Z,21.32
2023-04-09T11:25:18.263Z,21.50
2023-04-09T11:26:18.349Z,21.53
2023-04-09T11:27:18.282Z,21.85
2023-04-09T11:28:19.120Z,22.12
2023-04-09T11:29:19.029Z,22.28
2023-04-09T11:30:18.244Z,22.47
2023-04-09T11:31:19.089Z,22.87
2023-04-09T11:32:18.273Z,23.19
2023-04-09T11:33:20.030Z,23.26
2023-04-09T11:34:19.112Z,23.27
2023-04-09T11:35:18.945Z,23.27
2023-04-09T11:36:19.130Z,23.40
2023-04-09T11:37:18.607Z,23.22
2023-04-09T11:38:18.938Z,23.15
2023-04-09T11:39:19.081Z,23.12
2023-04-09T11:40:19.008Z,22.67
2023-04-09T11:41:18.033Z,22.46
2023-04-09T11:42:18.045Z,22.50
2023-04-09T11:43:18.262Z,22.71
2023-04-09T11:44:18.873Z,22.97
2023-04-09T11:45:18.006Z,23.39
2023-04-09T11:46:18.922Z,23.49
2023-04-09T11:47:18.965Z,23.42
2023-04-09T11:48:17.968Z,23.50
2023-04-09T11:49:19.075Z,23.72
2023-04-09T11:50:18.030Z,23.71
2023-04-09T11:51:17.920Z,22.65
2023-04-09T11:52:17.934Z,21.38
2023-04-09T11:53:17.889Z,20.31
2023-04-09T11:54:18.655Z,19.58
2023-04-09T11:55:18.812Z,19.14
2023-04-09T11:56:17.893Z,18.76
2023-04-09T11:57:18.349Z,18.67
2023-04-09T11:58:18.835Z,18.27
2023-04-09T11:59:17.852Z,18.17
2023-04-09T12:00:18.612Z,18.70
2023-04-09T12:01:18.752Z,19.47
2023-04-09T12:02:17.961Z,20.08
2023-04-09T12:03:18.114Z,20.47
2023-04-09T12:04:19.084Z,20.79
2023-04-09T12:05:18.743Z,20.72
2023-04-09T12:06:18.554Z,19.32
2023-04-09T12:07:19.698Z,19.08
2023-04-09T12:08:18.589Z,19.20
2023-04-09T12:09:18.524Z,18.82
2023-04-09T12:10:18.736Z,19.08
2023-04-09T12:11:18.548Z,19.76
2023-04-09T12:12:18.454Z,20.39
2023-04-09T12:13:17.661Z,21.02
2023-04-09T12:14:17.631Z,21.06
2023-04-09T12:15:17.601Z,21.13
2023-04-09T12:16:17.610Z,21.53
2023-04-09T12:17:18.571Z,22.13
2023-04-09T12:18:17.704Z,22.44
2023-04-09T12:19:17.882Z,22.38
2023-04-09T12:20:18.462Z,22.17
2023-04-09T12:21:19.426Z,22.10
2023-04-09T12:22:18.288Z,22.31
2023-04-09T12:23:17.710Z,22.09
2023-04-09T12:24:18.334Z,21.97
2023-04-09T12:25:18.236Z,22.16
2023-04-09T12:26:17.450Z,22.47
2023-04-09T12:27:18.466Z,22.90
2023-04-09T12:28:17.391Z,23.24
2023-04-09T12:29:17.691Z,23.50
2023-04-09T12:30:18.181Z,23.77
2023-04-09T12:31:17.842Z,23.70
2023-04-09T12:32:17.405Z,23.82
2023-04-09T12:33:18.261Z,23.89
2023-04-09T12:34:17.612Z,24.17
2023-04-09T12:35:17.438Z,24.41
2023-04-09T12:36:17.304Z,24.49
2023-04-09T12:37:17.263Z,24.39
2023-04-09T12:38:17.370Z,24.32
2023-04-09T12:39:18.240Z,24.27
2023-04-09T12:40:17.290Z,24.60
2023-04-09T12:41:17.298Z,24.53
2023-04-09T12:42:17.513Z,24.07
2023-04-09T12:43:17.270Z,23.77
2023-04-09T12:44:18.369Z,23.61
2023-04-09T12:45:18.097Z,23.24
2023-04-09T12:46:18.119Z,23.12
2023-04-09T12:47:18.166Z,23.01
2023-04-09T12:48:17.129Z,23.05
2023-04-09T12:49:17.974Z,22.87
2023-04-09T12:50:17.267Z,22.06
2023-04-09T12:51:17.157Z,21.24
2023-04-09T12:52:17.944Z,20.71
2023-04-09T12:53:18.112Z,20.95
2023-04-09T12:54:18.064Z,21.27
2023-04-09T12:55:17.078Z,21.32
2023-04-09T12:56:17.259Z,21.54
2023-04-09T12:57:17.083Z,21.90
2023-04-09T12:58:17.039Z,22.35
2023-04-09T12:59:17.258Z,22.67
2023-04-09T13:00:18.151Z,22.60
2023-04-09T13:01:17.037Z,22.65
2023-04-09T13:02:17.156Z,22.83
2023-04-09T13:03:17.207Z,22.78
2023-04-09T13:04:17.007Z,22.94
2023-04-09T13:05:17.007Z,23.05
2023-04-09T13:06:17.885Z,23.01
2023-04-09T13:07:16.900Z,23.31